ポートモレスビー・ジャクソン国際空港の過去48時間の天気

ポートモレスビー・ジャクソン国際空港 (Moresby)

現在時刻: 1/22 07:03 +10 (1/21 21:03 UTC) 以下の時間は現地時間です。

過去48時間のMETAR気象情報
時間 風向 風速(m/s) 視程 気温(℃) 湿度(%) 気圧(hPa) 天気現象
22 06:00 不定 2 10km以上 23 100 1008
22 05:00 西北西 3 10km以上 23 100 1007
22 04:00 西北西 2 10km以上 24 94 1007
22 03:00 2 10km以上 24 94 1007
22 02:00 北西 2 10km以上 24 94 1007
22 01:00 北西 2 10km以上 25 94 1007
22 00:00 北北西 2 10km以上 25 94 1008
21 23:00 西 5 10km以上 26 89 1009
21 22:00 西 5 10km以上 26 89 1009
21 21:00 西 5 10km以上 26 89 1008
21 20:00 西 5 10km以上 29 70 1008
21 19:00 西 5 10km以上 29 70 1007
21 18:00 西 5 10km以上 29 70 1006
21 17:00 西 3 10km以上 30 62 1006
21 16:00 西北西 5 10km以上 32 56 1005
21 15:00 西北西 5 10km以上 32 56 1006
21 14:00 北西 5 10km以上 32 59 1006
21 12:00 5 10km以上 30 66 1008
21 11:00 北北西 5 10km以上 29 74 1009
21 10:00 北北西 8 10km以上 28 79 1009
21 09:00 5 10km以上 28 79 1009
21 08:00 北北西 3 10km以上 26 89 1009
21 07:00 北西 3 10km以上 25 94 1008
21 06:00 北北西 3 10km以上 24 94 1007
21 05:00 北北西 3 10km以上 24 94 1007
21 04:00 北北西 3 10km以上 24 94 1006
21 03:00 北北西 3 10km以上 24 94 1007
21 01:00 北北西 3 10km以上 25 94 1007
21 00:00 不定 2 10km以上 25 94 1008
20 22:00 5 10km以上 25 94 1008 煙霧
20 21:00 7 10km以上 25 94 1008 煙霧
20 20:00 4 10km以上 25 94 1007 煙霧
20 19:00 5 10km以上 25 94 1007 煙霧
20 18:00 西 5 10km以上 27 89 1005 煙霧
20 17:00 5 10km以上 27 89 1005
20 15:00 北北西 5 10km以上 30 70 1004
20 14:00 西北西 5 10km以上 31 66 1005
20 12:00 西北西 8 10km以上 30 70 1006 しゅう雨
20 11:00 北北西 8 10km以上 31 66 1007
20 10:00 北北西 8 10km以上 30 70 1007
20 09:00 北北西 8 10km以上 28 79 1007
20 08:00 北北西 5 10km以上 27 84 1007
AYPY 212000Z VRB04KT 9999 FEW050 23/23 Q1008
AYPY 211900Z 30005KT 9999 FEW050 23/23 Q1007
AYPY 211800Z 30004KT 9999 FEW050 24/23 Q1007
AYPY 211700Z 01004KT 9999 SCT050 24/23 Q1007
AYPY 211600Z 31004KT 9999 SCT050 24/23 Q1007
AYPY 211500Z 31004KT 9999 SCT050 25/24 Q1007
AYPY 211400Z 33004KT 9999 FEW040 25/24 Q1008
AYPY 211300Z 26010KT 9999 FEW035 26/24 Q1009
AYPY 211200Z 26010KT 9999 FEW035 26/24 Q1009
AYPY 211100Z 26010KT 9999 FEW035 26/24 Q1008
AYPY 211000Z 26010KT 9999 FEW035 29/23 Q1008
AYPY 210900Z 26010KT 9999 FEW035 29/23 Q1007
AYPY 210800Z 26010KT 9999 FEW035 29/23 Q1006
AYPY 210700Z 28005G15KT 9999 FEW035 30/22 Q1006
AYPY 210600Z 29010G20KT 9999 FEW035 32/22 Q1005
AYPY 210500Z 30010G20KT 9999 FEW035 32/22 Q1006
AYPY 210400Z 32010G20KT 9999 FEW030 32/23 Q1006
AYPY 210200Z 35010G20KT 9999 FEW025 SCT050 30/23 Q1008
AYPY 210100Z 34010G20KT 9999 SCT025 SCT035 SCT050 29/24 Q1009
AYPY 210000Z 34015KT 9999 BKN020 BKN030 28/24 Q1009
AYPY 202300Z 35010KT 9999 FEW015 SCT025 SCT050 28/24 Q1009
AYPY 202200Z 33005KT 9999 FEW015 FEW030 BKN050 26/24 Q1009
AYPY 202100Z 31005KT 9999 FEW015 FEW035 BKN100 25/24 Q1008
AYPY 202000Z 33005KT 9999 FEW015 SCT030 OVC060 24/23 Q1007
AYPY 201900Z 33005KT 9999 SCT015 BKN020 OVC080 24/23 Q1007
AYPY 201800Z 33005KT 9999 FEW030 SCT050 BKN080 24/23 Q1006
AYPY 201700Z 33005KT 9999 FEW030 BKN070 24/23 Q1007
AYPY 201500Z 33005KT 9999 FEW030 BKN060 25/24 Q1007
AYPY 201400Z VRB03KT 9999 FEW025 BKN060 25/24 Q1008
AYPY 201200Z 35010KT 9999 HZ FEW010 SCT025 BKN040 25/24 Q1008
AYPY 201100Z 35013KT 9999 HZ FEW010 SCT030 BKN050 25/24 Q1008
AYPY 201000Z 35007KT 9999 HZ FEW015 SCT030 BKN060 25/24 Q1007
AYPY 200900Z 35010G15KT 9999 HZ SCT015 BKN035 OVC050 25/24 Q1007 RMK/ CB ASSW SHRA FM THE NORTH WEST TO THE SE
AYPY 200800Z 28010G20KT 9999 HZ SCT015 BKN025 OVC060 27/25 Q1005 RMK: CB ASSW SHRA FM THE N TO SE
AYPY 200700Z 35010KT 9999 FEW015 SCT030 SCT045 27/25 Q1005 RMK/ CB ASSW SHRA TO THE W
AYPY 200500Z 34010G20KT 9999 SCT030 SCT050 30/24 Q1004
AYPY 200400Z 30010G20KT 9999 SCT030 SCT050 31/24 Q1005
AYPY 200200Z 30015KT 9999 SHRA SCT030 SCT050 CB 30/24 Q1006
AYPY 200100Z 34015KT 9999 SCT035 SCT050 31/24 Q1007
AYPY 200000Z 34015KT 9999 SCT025 30/24 Q1007
AYPY 192300Z 33015KT 9999 SCT050 28/24 Q1007
AYPY 192200Z 33010KT 9999 SCT050 27/24 Q1007